sensor_id;sensor_type;location;lat;lon;timestamp;P1;durP1;ratioP1;P2;durP2;ratioP2
40599;SDS011;26309;50.924;4.754;2024-01-15T00:00:49;44.40;;;19.90;;
40599;SDS011;26309;50.924;4.754;2024-01-15T00:03:15;39.10;;;19.20;;
40599;SDS011;26309;50.924;4.754;2024-01-15T00:05:41;37.00;;;18.57;;
40599;SDS011;26309;50.924;4.754;2024-01-15T00:08:06;41.20;;;18.50;;
40599;SDS011;26309;50.924;4.754;2024-01-15T00:10:32;37.03;;;17.77;;
40599;SDS011;26309;50.924;4.754;2024-01-15T00:12:58;38.07;;;18.10;;
40599;SDS011;26309;50.924;4.754;2024-01-15T00:15:24;34.37;;;17.90;;
40599;SDS011;26309;50.924;4.754;2024-01-15T00:17:51;32.93;;;17.30;;
40599;SDS011;26309;50.924;4.754;2024-01-15T00:20:17;33.70;;;17.37;;
40599;SDS011;26309;50.924;4.754;2024-01-15T00:22:42;36.20;;;17.67;;
40599;SDS011;26309;50.924;4.754;2024-01-15T00:25:09;35.07;;;16.57;;
40599;SDS011;26309;50.924;4.754;2024-01-15T00:27:34;33.47;;;17.23;;
40599;SDS011;26309;50.924;4.754;2024-01-15T00:30:00;36.00;;;17.50;;
40599;SDS011;26309;50.924;4.754;2024-01-15T00:32:26;33.63;;;16.97;;
40599;SDS011;26309;50.924;4.754;2024-01-15T00:34:53;35.93;;;17.10;;
40599;SDS011;26309;50.924;4.754;2024-01-15T00:37:19;39.93;;;18.00;;
40599;SDS011;26309;50.924;4.754;2024-01-15T00:39:45;38.47;;;18.63;;
40599;SDS011;26309;50.924;4.754;2024-01-15T00:42:10;32.73;;;18.10;;
40599;SDS011;26309;50.924;4.754;2024-01-15T00:44:36;33.93;;;17.73;;
40599;SDS011;26309;50.924;4.754;2024-01-15T00:47:02;35.57;;;17.67;;
40599;SDS011;26309;50.924;4.754;2024-01-15T00:49:29;34.10;;;16.80;;
40599;SDS011;26309;50.924;4.754;2024-01-15T00:51:55;32.27;;;15.97;;
40599;SDS011;26309;50.924;4.754;2024-01-15T00:54:20;34.73;;;17.83;;
40599;SDS011;26309;50.924;4.754;2024-01-15T00:56:46;37.17;;;17.13;;
40599;SDS011;26309;50.924;4.754;2024-01-15T00:59:12;31.53;;;16.00;;
40599;SDS011;26309;50.924;4.754;2024-01-15T01:01:40;33.40;;;16.93;;
40599;SDS011;26309;50.924;4.754;2024-01-15T01:04:08;35.10;;;16.40;;
40599;SDS011;26309;50.924;4.754;2024-01-15T01:06:35;31.83;;;16.50;;
40599;SDS011;26309;50.924;4.754;2024-01-15T01:09:01;30.53;;;16.53;;
40599;SDS011;26309;50.924;4.754;2024-01-15T01:11:27;30.20;;;16.33;;
40599;SDS011;26309;50.924;4.754;2024-01-15T01:13:53;29.97;;;16.10;;
40599;SDS011;26309;50.924;4.754;2024-01-15T01:16:19;33.07;;;15.77;;
40599;SDS011;26309;50.924;4.754;2024-01-15T01:18:45;30.97;;;15.37;;
40599;SDS011;26309;50.924;4.754;2024-01-15T01:21:11;31.93;;;16.13;;
40599;SDS011;26309;50.924;4.754;2024-01-15T01:23:36;33.03;;;16.33;;
40599;SDS011;26309;50.924;4.754;2024-01-15T01:26:02;28.90;;;15.37;;
40599;SDS011;26309;50.924;4.754;2024-01-15T01:28:28;31.90;;;16.33;;
40599;SDS011;26309;50.924;4.754;2024-01-15T01:30:55;28.70;;;15.50;;
40599;SDS011;26309;50.924;4.754;2024-01-15T01:33:21;30.57;;;15.07;;
40599;SDS011;26309;50.924;4.754;2024-01-15T01:35:47;32.27;;;15.63;;
40599;SDS011;26309;50.924;4.754;2024-01-15T01:38:13;30.63;;;15.57;;
40599;SDS011;26309;50.924;4.754;2024-01-15T01:40:38;29.83;;;15.33;;
40599;SDS011;26309;50.924;4.754;2024-01-15T01:43:05;28.63;;;16.13;;
40599;SDS011;26309;50.924;4.754;2024-01-15T01:45:30;27.97;;;15.23;;
40599;SDS011;26309;50.924;4.754;2024-01-15T01:47:56;28.73;;;16.27;;
40599;SDS011;26309;50.924;4.754;2024-01-15T01:50:22;29.07;;;15.77;;
40599;SDS011;26309;50.924;4.754;2024-01-15T01:52:48;29.07;;;16.17;;
40599;SDS011;26309;50.924;4.754;2024-01-15T01:55:15;26.97;;;15.70;;
40599;SDS011;26309;50.924;4.754;2024-01-15T01:57:41;31.50;;;15.93;;
40599;SDS011;26309;50.924;4.754;2024-01-15T02:00:07;25.27;;;14.27;;
40599;SDS011;26309;50.924;4.754;2024-01-15T02:02:34;26.27;;;14.63;;
40599;SDS011;26309;50.924;4.754;2024-01-15T02:05:00;25.53;;;14.63;;
40599;SDS011;26309;50.924;4.754;2024-01-15T02:07:26;27.80;;;14.60;;
40599;SDS011;26309;50.924;4.754;2024-01-15T02:09:52;28.77;;;15.43;;
40599;SDS011;26309;50.924;4.754;2024-01-15T02:12:18;26.07;;;14.20;;
40599;SDS011;26309;50.924;4.754;2024-01-15T02:14:44;23.93;;;13.17;;
40599;SDS011;26309;50.924;4.754;2024-01-15T02:17:10;24.93;;;13.03;;
40599;SDS011;26309;50.924;4.754;2024-01-15T02:19:36;25.47;;;13.67;;
40599;SDS011;26309;50.924;4.754;2024-01-15T02:22:01;26.57;;;13.70;;
40599;SDS011;26309;50.924;4.754;2024-01-15T02:24:27;20.47;;;13.07;;
40599;SDS011;26309;50.924;4.754;2024-01-15T02:26:53;26.30;;;13.20;;
40599;SDS011;26309;50.924;4.754;2024-01-15T02:29:19;20.67;;;11.50;;
40599;SDS011;26309;50.924;4.754;2024-01-15T02:31:45;20.17;;;12.13;;
40599;SDS011;26309;50.924;4.754;2024-01-15T02:34:11;20.13;;;11.97;;
40599;SDS011;26309;50.924;4.754;2024-01-15T02:36:36;17.63;;;10.93;;
40599;SDS011;26309;50.924;4.754;2024-01-15T02:39:02;18.77;;;11.00;;
40599;SDS011;26309;50.924;4.754;2024-01-15T02:41:28;20.33;;;11.37;;
40599;SDS011;26309;50.924;4.754;2024-01-15T02:43:54;15.97;;;9.63;;
40599;SDS011;26309;50.924;4.754;2024-01-15T02:46:20;17.87;;;9.57;;
40599;SDS011;26309;50.924;4.754;2024-01-15T02:48:45;12.90;;;9.23;;
40599;SDS011;26309;50.924;4.754;2024-01-15T02:51:11;15.13;;;8.97;;
40599;SDS011;26309;50.924;4.754;2024-01-15T02:53:37;15.47;;;8.73;;
40599;SDS011;26309;50.924;4.754;2024-01-15T02:56:03;15.77;;;8.87;;
40599;SDS011;26309;50.924;4.754;2024-01-15T02:58:29;16.40;;;8.73;;
40599;SDS011;26309;50.924;4.754;2024-01-15T03:00:56;13.13;;;8.67;;
40599;SDS011;26309;50.924;4.754;2024-01-15T03:03:21;17.60;;;9.00;;
40599;SDS011;26309;50.924;4.754;2024-01-15T03:05:47;13.47;;;8.97;;
40599;SDS011;26309;50.924;4.754;2024-01-15T03:08:13;15.40;;;8.80;;
40599;SDS011;26309;50.924;4.754;2024-01-15T03:10:39;15.23;;;8.67;;
40599;SDS011;26309;50.924;4.754;2024-01-15T03:13:05;18.67;;;9.00;;
40599;SDS011;26309;50.924;4.754;2024-01-15T03:15:31;13.07;;;8.57;;
40599;SDS011;26309;50.924;4.754;2024-01-15T03:17:56;16.30;;;8.33;;
40599;SDS011;26309;50.924;4.754;2024-01-15T03:20:25;12.23;;;7.70;;
40599;SDS011;26309;50.924;4.754;2024-01-15T03:22:51;15.73;;;8.20;;
40599;SDS011;26309;50.924;4.754;2024-01-15T03:25:17;13.17;;;7.80;;
40599;SDS011;26309;50.924;4.754;2024-01-15T03:27:43;16.17;;;8.13;;
40599;SDS011;26309;50.924;4.754;2024-01-15T03:30:12;14.67;;;8.07;;
40599;SDS011;26309;50.924;4.754;2024-01-15T03:32:38;17.13;;;7.90;;
40599;SDS011;26309;50.924;4.754;2024-01-15T03:37:54;16.27;;;9.30;;
40599;SDS011;26309;50.924;4.754;2024-01-15T03:40:20;14.80;;;8.73;;
40599;SDS011;26309;50.924;4.754;2024-01-15T03:42:46;14.40;;;8.33;;
40599;SDS011;26309;50.924;4.754;2024-01-15T03:45:12;12.13;;;7.87;;
40599;SDS011;26309;50.924;4.754;2024-01-15T03:47:38;14.13;;;7.93;;
40599;SDS011;26309;50.924;4.754;2024-01-15T03:50:04;13.13;;;8.20;;
40599;SDS011;26309;50.924;4.754;2024-01-15T03:52:30;13.67;;;8.37;;
40599;SDS011;26309;50.924;4.754;2024-01-15T03:54:56;15.37;;;7.77;;
40599;SDS011;26309;50.924;4.754;2024-01-15T03:57:22;16.23;;;8.27;;
40599;SDS011;26309;50.924;4.754;2024-01-15T03:59:48;12.10;;;8.70;;
40599;SDS011;26309;50.924;4.754;2024-01-15T04:02:14;14.97;;;7.93;;
40599;SDS011;26309;50.924;4.754;2024-01-15T04:04:43;15.57;;;8.13;;
40599;SDS011;26309;50.924;4.754;2024-01-15T04:07:09;12.87;;;8.93;;
40599;SDS011;26309;50.924;4.754;2024-01-15T04:09:35;16.20;;;9.87;;
40599;SDS011;26309;50.924;4.754;2024-01-15T04:12:01;18.27;;;9.63;;
40599;SDS011;26309;50.924;4.754;2024-01-15T04:14:27;16.93;;;9.80;;
40599;SDS011;26309;50.924;4.754;2024-01-15T04:16:56;17.90;;;10.17;;
40599;SDS011;26309;50.924;4.754;2024-01-15T04:19:22;18.70;;;11.13;;
40599;SDS011;26309;50.924;4.754;2024-01-15T04:21:48;19.23;;;11.00;;
40599;SDS011;26309;50.924;4.754;2024-01-15T04:24:17;24.17;;;12.40;;
40599;SDS011;26309;50.924;4.754;2024-01-15T04:26:43;19.33;;;11.27;;
40599;SDS011;26309;50.924;4.754;2024-01-15T04:29:09;18.93;;;12.30;;
40599;SDS011;26309;50.924;4.754;2024-01-15T04:31:34;24.63;;;13.00;;
40599;SDS011;26309;50.924;4.754;2024-01-15T04:34:00;24.70;;;12.17;;
40599;SDS011;26309;50.924;4.754;2024-01-15T04:36:26;25.57;;;13.40;;
40599;SDS011;26309;50.924;4.754;2024-01-15T04:38:52;24.60;;;13.67;;
40599;SDS011;26309;50.924;4.754;2024-01-15T04:41:18;22.67;;;13.10;;
40599;SDS011;26309;50.924;4.754;2024-01-15T04:43:43;24.00;;;13.47;;
40599;SDS011;26309;50.924;4.754;2024-01-15T04:46:09;22.70;;;12.87;;
40599;SDS011;26309;50.924;4.754;2024-01-15T04:48:35;24.77;;;14.63;;
40599;SDS011;26309;50.924;4.754;2024-01-15T04:51:03;25.37;;;13.30;;
40599;SDS011;26309;50.924;4.754;2024-01-15T04:53:30;23.17;;;14.07;;
40599;SDS011;26309;50.924;4.754;2024-01-15T04:55:57;26.33;;;15.17;;
40599;SDS011;26309;50.924;4.754;2024-01-15T04:58:22;28.70;;;15.80;;
40599;SDS011;26309;50.924;4.754;2024-01-15T05:00:51;31.23;;;16.80;;
40599;SDS011;26309;50.924;4.754;2024-01-15T05:03:17;31.17;;;15.90;;
40599;SDS011;26309;50.924;4.754;2024-01-15T05:05:43;31.37;;;16.33;;
40599;SDS011;26309;50.924;4.754;2024-01-15T05:08:09;30.07;;;15.40;;
40599;SDS011;26309;50.924;4.754;2024-01-15T05:10:34;31.80;;;16.77;;
40599;SDS011;26309;50.924;4.754;2024-01-15T05:13:00;28.53;;;16.97;;
40599;SDS011;26309;50.924;4.754;2024-01-15T05:15:26;33.47;;;17.33;;
40599;SDS011;26309;50.924;4.754;2024-01-15T05:17:52;32.93;;;16.30;;
40599;SDS011;26309;50.924;4.754;2024-01-15T05:20:18;30.87;;;17.20;;
40599;SDS011;26309;50.924;4.754;2024-01-15T05:22:43;34.40;;;16.17;;
40599;SDS011;26309;50.924;4.754;2024-01-15T05:25:09;28.17;;;17.63;;
40599;SDS011;26309;50.924;4.754;2024-01-15T05:27:35;32.97;;;17.23;;
40599;SDS011;26309;50.924;4.754;2024-01-15T05:30:01;32.83;;;17.27;;
40599;SDS011;26309;50.924;4.754;2024-01-15T05:32:27;27.33;;;15.67;;
40599;SDS011;26309;50.924;4.754;2024-01-15T05:34:53;30.07;;;16.83;;
40599;SDS011;26309;50.924;4.754;2024-01-15T05:37:18;30.97;;;16.50;;
40599;SDS011;26309;50.924;4.754;2024-01-15T05:39:44;29.70;;;16.40;;
40599;SDS011;26309;50.924;4.754;2024-01-15T05:42:10;24.73;;;14.50;;
40599;SDS011;26309;50.924;4.754;2024-01-15T05:44:36;31.07;;;15.23;;
40599;SDS011;26309;50.924;4.754;2024-01-15T05:47:02;32.60;;;16.13;;
40599;SDS011;26309;50.924;4.754;2024-01-15T05:49:29;32.33;;;16.57;;
40599;SDS011;26309;50.924;4.754;2024-01-15T05:51:55;28.27;;;14.40;;
40599;SDS011;26309;50.924;4.754;2024-01-15T05:54:20;27.00;;;14.53;;
40599;SDS011;26309;50.924;4.754;2024-01-15T05:56:46;26.93;;;13.93;;
40599;SDS011;26309;50.924;4.754;2024-01-15T05:59:12;32.17;;;14.23;;
40599;SDS011;26309;50.924;4.754;2024-01-15T06:01:38;26.70;;;13.53;;
40599;SDS011;26309;50.924;4.754;2024-01-15T06:04:04;26.83;;;13.73;;
40599;SDS011;26309;50.924;4.754;2024-01-15T06:06:32;27.73;;;12.87;;
40599;SDS011;26309;50.924;4.754;2024-01-15T06:08:58;23.30;;;13.07;;
40599;SDS011;26309;50.924;4.754;2024-01-15T06:11:33;25.17;;;12.60;;
40599;SDS011;26309;50.924;4.754;2024-01-15T06:13:59;22.97;;;12.10;;
40599;SDS011;26309;50.924;4.754;2024-01-15T06:16:27;21.57;;;10.53;;
40599;SDS011;26309;50.924;4.754;2024-01-15T06:18:54;18.60;;;9.47;;
40599;SDS011;26309;50.924;4.754;2024-01-15T06:21:19;21.53;;;11.27;;
40599;SDS011;26309;50.924;4.754;2024-01-15T06:23:45;22.97;;;10.73;;
40599;SDS011;26309;50.924;4.754;2024-01-15T06:26:11;22.07;;;10.03;;
40599;SDS011;26309;50.924;4.754;2024-01-15T06:28:38;19.87;;;9.80;;
40599;SDS011;26309;50.924;4.754;2024-01-15T06:31:05;24.87;;;9.40;;
40599;SDS011;26309;50.924;4.754;2024-01-15T06:33:32;16.60;;;8.53;;
40599;SDS011;26309;50.924;4.754;2024-01-15T06:35:58;16.53;;;8.87;;
40599;SDS011;26309;50.924;4.754;2024-01-15T06:38:24;18.40;;;8.77;;
40599;SDS011;26309;50.924;4.754;2024-01-15T06:40:50;14.87;;;8.23;;
40599;SDS011;26309;50.924;4.754;2024-01-15T06:43:17;11.60;;;6.93;;
40599;SDS011;26309;50.924;4.754;2024-01-15T06:45:45;17.60;;;6.57;;
40599;SDS011;26309;50.924;4.754;2024-01-15T06:48:11;14.97;;;6.00;;
40599;SDS011;26309;50.924;4.754;2024-01-15T06:50:45;11.80;;;5.60;;
40599;SDS011;26309;50.924;4.754;2024-01-15T06:53:11;11.67;;;5.30;;
40599;SDS011;26309;50.924;4.754;2024-01-15T06:55:37;9.67;;;4.37;;
40599;SDS011;26309;50.924;4.754;2024-01-15T06:58:04;13.77;;;5.20;;
40599;SDS011;26309;50.924;4.754;2024-01-15T07:00:33;15.60;;;5.53;;
40599;SDS011;26309;50.924;4.754;2024-01-15T07:02:58;8.40;;;3.97;;
40599;SDS011;26309;50.924;4.754;2024-01-15T07:05:24;15.90;;;4.83;;
40599;SDS011;26309;50.924;4.754;2024-01-15T07:07:50;10.20;;;3.80;;
40599;SDS011;26309;50.924;4.754;2024-01-15T07:10:16;11.73;;;3.57;;
40599;SDS011;26309;50.924;4.754;2024-01-15T07:12:42;11.97;;;4.17;;
40599;SDS011;26309;50.924;4.754;2024-01-15T07:15:09;7.33;;;3.73;;
40599;SDS011;26309;50.924;4.754;2024-01-15T07:17:35;11.13;;;3.50;;
40599;SDS011;26309;50.924;4.754;2024-01-15T07:20:07;7.70;;;3.70;;
40599;SDS011;26309;50.924;4.754;2024-01-15T07:22:35;10.67;;;3.57;;
40599;SDS011;26309;50.924;4.754;2024-01-15T07:25:01;8.23;;;3.60;;
40599;SDS011;26309;50.924;4.754;2024-01-15T07:27:29;8.30;;;3.17;;
40599;SDS011;26309;50.924;4.754;2024-01-15T07:29:56;8.73;;;3.27;;
40599;SDS011;26309;50.924;4.754;2024-01-15T07:32:23;10.07;;;3.27;;
40599;SDS011;26309;50.924;4.754;2024-01-15T07:34:49;8.33;;;3.10;;
40599;SDS011;26309;50.924;4.754;2024-01-15T07:37:15;10.80;;;3.20;;
40599;SDS011;26309;50.924;4.754;2024-01-15T07:39:41;6.13;;;3.07;;
40599;SDS011;26309;50.924;4.754;2024-01-15T07:42:06;13.43;;;4.10;;
40599;SDS011;26309;50.924;4.754;2024-01-15T07:44:33;11.97;;;3.67;;
40599;SDS011;26309;50.924;4.754;2024-01-15T07:46:58;9.07;;;3.30;;
40599;SDS011;26309;50.924;4.754;2024-01-15T07:49:24;16.73;;;3.67;;
40599;SDS011;26309;50.924;4.754;2024-01-15T07:51:50;13.17;;;3.10;;
40599;SDS011;26309;50.924;4.754;2024-01-15T07:54:16;7.83;;;3.47;;
40599;SDS011;26309;50.924;4.754;2024-01-15T07:56:58;9.17;;;3.43;;
40599;SDS011;26309;50.924;4.754;2024-01-15T07:59:31;8.57;;;3.53;;
40599;SDS011;26309;50.924;4.754;2024-01-15T08:01:57;8.37;;;3.53;;
40599;SDS011;26309;50.924;4.754;2024-01-15T08:04:24;16.63;;;3.40;;
40599;SDS011;26309;50.924;4.754;2024-01-15T08:06:49;7.40;;;3.47;;
40599;SDS011;26309;50.924;4.754;2024-01-15T08:09:15;11.53;;;3.93;;
40599;SDS011;26309;50.924;4.754;2024-01-15T08:11:42;8.97;;;3.63;;
40599;SDS011;26309;50.924;4.754;2024-01-15T08:14:08;9.50;;;3.70;;
40599;SDS011;26309;50.924;4.754;2024-01-15T08:16:35;9.23;;;3.60;;
40599;SDS011;26309;50.924;4.754;2024-01-15T08:19:02;17.57;;;4.07;;
40599;SDS011;26309;50.924;4.754;2024-01-15T08:21:28;9.10;;;3.87;;
40599;SDS011;26309;50.924;4.754;2024-01-15T08:23:59;11.50;;;3.63;;
40599;SDS011;26309;50.924;4.754;2024-01-15T08:26:26;11.13;;;3.23;;
40599;SDS011;26309;50.924;4.754;2024-01-15T08:28:51;11.90;;;3.23;;
40599;SDS011;26309;50.924;4.754;2024-01-15T08:31:17;9.00;;;3.23;;
40599;SDS011;26309;50.924;4.754;2024-01-15T08:33:43;16.20;;;3.13;;
40599;SDS011;26309;50.924;4.754;2024-01-15T08:36:09;14.23;;;3.20;;
40599;SDS011;26309;50.924;4.754;2024-01-15T08:38:36;8.60;;;3.20;;
40599;SDS011;26309;50.924;4.754;2024-01-15T08:41:01;6.77;;;3.33;;
40599;SDS011;26309;50.924;4.754;2024-01-15T08:43:27;11.43;;;3.57;;
40599;SDS011;26309;50.924;4.754;2024-01-15T08:45:53;9.70;;;3.33;;
40599;SDS011;26309;50.924;4.754;2024-01-15T08:48:19;7.90;;;3.07;;
40599;SDS011;26309;50.924;4.754;2024-01-15T08:50:45;8.90;;;3.17;;
40599;SDS011;26309;50.924;4.754;2024-01-15T08:53:11;15.60;;;3.60;;
40599;SDS011;26309;50.924;4.754;2024-01-15T08:55:37;7.77;;;3.50;;
40599;SDS011;26309;50.924;4.754;2024-01-15T08:58:03;9.47;;;3.13;;
40599;SDS011;26309;50.924;4.754;2024-01-15T09:00:29;11.43;;;3.10;;
40599;SDS011;26309;50.924;4.754;2024-01-15T09:02:55;9.73;;;3.23;;
40599;SDS011;26309;50.924;4.754;2024-01-15T09:05:21;7.23;;;2.80;;
40599;SDS011;26309;50.924;4.754;2024-01-15T09:07:50;10.63;;;3.30;;
40599;SDS011;26309;50.924;4.754;2024-01-15T09:10:17;9.20;;;2.90;;
40599;SDS011;26309;50.924;4.754;2024-01-15T09:12:44;5.93;;;3.13;;
40599;SDS011;26309;50.924;4.754;2024-01-15T09:15:10;11.27;;;3.20;;
40599;SDS011;26309;50.924;4.754;2024-01-15T09:17:36;9.73;;;2.57;;
40599;SDS011;26309;50.924;4.754;2024-01-15T09:20:02;11.57;;;3.00;;
40599;SDS011;26309;50.924;4.754;2024-01-15T09:22:32;12.73;;;3.27;;
40599;SDS011;26309;50.924;4.754;2024-01-15T09:24:58;10.23;;;3.00;;
40599;SDS011;26309;50.924;4.754;2024-01-15T09:27:24;12.40;;;3.23;;
40599;SDS011;26309;50.924;4.754;2024-01-15T09:29:53;10.40;;;2.83;;
40599;SDS011;26309;50.924;4.754;2024-01-15T09:32:22;5.87;;;2.47;;
40599;SDS011;26309;50.924;4.754;2024-01-15T09:34:48;5.03;;;2.30;;
40599;SDS011;26309;50.924;4.754;2024-01-15T09:37:14;8.20;;;2.50;;
40599;SDS011;26309;50.924;4.754;2024-01-15T09:39:40;9.63;;;2.80;;
40599;SDS011;26309;50.924;4.754;2024-01-15T09:42:06;6.80;;;2.97;;
40599;SDS011;26309;50.924;4.754;2024-01-15T09:44:33;11.80;;;2.73;;
40599;SDS011;26309;50.924;4.754;2024-01-15T09:46:59;10.97;;;2.83;;
40599;SDS011;26309;50.924;4.754;2024-01-15T09:49:25;7.23;;;2.53;;
40599;SDS011;26309;50.924;4.754;2024-01-15T09:51:51;7.27;;;2.63;;
40599;SDS011;26309;50.924;4.754;2024-01-15T09:54:17;6.83;;;2.87;;
40599;SDS011;26309;50.924;4.754;2024-01-15T09:56:46;9.63;;;2.97;;
40599;SDS011;26309;50.924;4.754;2024-01-15T09:59:17;6.77;;;2.63;;
40599;SDS011;26309;50.924;4.754;2024-01-15T10:01:44;8.07;;;2.50;;
40599;SDS011;26309;50.924;4.754;2024-01-15T10:04:13;9.67;;;3.20;;
40599;SDS011;26309;50.924;4.754;2024-01-15T10:06:45;9.60;;;2.80;;
40599;SDS011;26309;50.924;4.754;2024-01-15T10:09:13;10.47;;;2.53;;
40599;SDS011;26309;50.924;4.754;2024-01-15T10:11:41;9.10;;;3.10;;
40599;SDS011;26309;50.924;4.754;2024-01-15T10:14:09;9.07;;;2.90;;
40599;SDS011;26309;50.924;4.754;2024-01-15T10:16:38;8.80;;;2.93;;
40599;SDS011;26309;50.924;4.754;2024-01-15T10:19:07;10.17;;;2.50;;
40599;SDS011;26309;50.924;4.754;2024-01-15T10:21:34;9.10;;;2.60;;
40599;SDS011;26309;50.924;4.754;2024-01-15T10:24:00;10.43;;;2.90;;
40599;SDS011;26309;50.924;4.754;2024-01-15T10:26:32;10.13;;;2.40;;
40599;SDS011;26309;50.924;4.754;2024-01-15T10:28:59;11.03;;;2.47;;
40599;SDS011;26309;50.924;4.754;2024-01-15T10:31:25;7.47;;;2.70;;
40599;SDS011;26309;50.924;4.754;2024-01-15T10:33:52;4.93;;;2.57;;
40599;SDS011;26309;50.924;4.754;2024-01-15T10:36:21;11.80;;;2.60;;
40599;SDS011;26309;50.924;4.754;2024-01-15T10:38:47;6.97;;;2.10;;
40599;SDS011;26309;50.924;4.754;2024-01-15T10:41:13;5.93;;;2.30;;
40599;SDS011;26309;50.924;4.754;2024-01-15T10:43:39;7.10;;;2.50;;
40599;SDS011;26309;50.924;4.754;2024-01-15T10:46:06;7.27;;;1.60;;
40599;SDS011;26309;50.924;4.754;2024-01-15T10:48:33;7.93;;;2.30;;
40599;SDS011;26309;50.924;4.754;2024-01-15T10:51:01;11.83;;;2.90;;
40599;SDS011;26309;50.924;4.754;2024-01-15T10:53:35;6.27;;;2.40;;
40599;SDS011;26309;50.924;4.754;2024-01-15T10:56:05;11.97;;;2.43;;
40599;SDS011;26309;50.924;4.754;2024-01-15T10:58:31;7.60;;;2.20;;
40599;SDS011;26309;50.924;4.754;2024-01-15T11:01:00;12.63;;;2.47;;
40599;SDS011;26309;50.924;4.754;2024-01-15T11:03:27;8.40;;;2.63;;
40599;SDS011;26309;50.924;4.754;2024-01-15T11:05:53;7.33;;;2.17;;
40599;SDS011;26309;50.924;4.754;2024-01-15T11:08:19;11.17;;;2.53;;
40599;SDS011;26309;50.924;4.754;2024-01-15T11:10:55;9.93;;;2.70;;
40599;SDS011;26309;50.924;4.754;2024-01-15T11:13:23;7.13;;;2.80;;
40599;SDS011;26309;50.924;4.754;2024-01-15T11:16:12;9.43;;;2.13;;
40599;SDS011;26309;50.924;4.754;2024-01-15T11:18:43;9.10;;;2.60;;
40599;SDS011;26309;50.924;4.754;2024-01-15T11:21:21;11.33;;;2.63;;
40599;SDS011;26309;50.924;4.754;2024-01-15T11:28:54;12.47;;;3.00;;
40599;SDS011;26309;50.924;4.754;2024-01-15T11:31:20;10.70;;;2.60;;
40599;SDS011;26309;50.924;4.754;2024-01-15T11:33:50;11.57;;;2.60;;
40599;SDS011;26309;50.924;4.754;2024-01-15T11:36:16;9.33;;;2.77;;
40599;SDS011;26309;50.924;4.754;2024-01-15T11:38:42;12.47;;;2.37;;
40599;SDS011;26309;50.924;4.754;2024-01-15T11:41:14;8.17;;;2.27;;
40599;SDS011;26309;50.924;4.754;2024-01-15T11:43:43;8.97;;;2.33;;
40599;SDS011;26309;50.924;4.754;2024-01-15T11:46:12;7.60;;;2.13;;
40599;SDS011;26309;50.924;4.754;2024-01-15T11:48:42;9.27;;;2.70;;
40599;SDS011;26309;50.924;4.754;2024-01-15T11:51:12;5.17;;;2.20;;
40599;SDS011;26309;50.924;4.754;2024-01-15T11:53:45;9.00;;;2.37;;
40599;SDS011;26309;50.924;4.754;2024-01-15T11:56:14;10.67;;;2.70;;
40599;SDS011;26309;50.924;4.754;2024-01-15T11:58:44;6.50;;;2.43;;
40599;SDS011;26309;50.924;4.754;2024-01-15T12:01:11;9.60;;;2.70;;
40599;SDS011;26309;50.924;4.754;2024-01-15T12:03:37;7.97;;;2.17;;
40599;SDS011;26309;50.924;4.754;2024-01-15T12:06:05;7.70;;;2.00;;
40599;SDS011;26309;50.924;4.754;2024-01-15T12:08:32;4.43;;;2.07;;
40599;SDS011;26309;50.924;4.754;2024-01-15T12:10:57;9.70;;;2.10;;
40599;SDS011;26309;50.924;4.754;2024-01-15T12:13:23;4.60;;;1.87;;
40599;SDS011;26309;50.924;4.754;2024-01-15T12:15:49;7.27;;;2.00;;
40599;SDS011;26309;50.924;4.754;2024-01-15T12:18:16;7.23;;;2.03;;
40599;SDS011;26309;50.924;4.754;2024-01-15T12:20:43;1.30;;;1.20;;
40599;SDS011;26309;50.924;4.754;2024-01-15T12:23:12;6.73;;;2.00;;
40599;SDS011;26309;50.924;4.754;2024-01-15T12:25:38;6.27;;;2.23;;
40599;SDS011;26309;50.924;4.754;2024-01-15T12:28:05;8.47;;;2.20;;
40599;SDS011;26309;50.924;4.754;2024-01-15T12:30:46;9.67;;;1.40;;
40599;SDS011;26309;50.924;4.754;2024-01-15T12:33:14;9.03;;;1.97;;
40599;SDS011;26309;50.924;4.754;2024-01-15T12:35:40;7.50;;;1.80;;
40599;SDS011;26309;50.924;4.754;2024-01-15T12:38:06;10.30;;;2.27;;
40599;SDS011;26309;50.924;4.754;2024-01-15T12:40:32;8.47;;;2.10;;
40599;SDS011;26309;50.924;4.754;2024-01-15T12:42:59;7.37;;;1.83;;
40599;SDS011;26309;50.924;4.754;2024-01-15T12:45:25;6.80;;;1.90;;
40599;SDS011;26309;50.924;4.754;2024-01-15T12:47:54;12.17;;;2.20;;
40599;SDS011;26309;50.924;4.754;2024-01-15T12:50:23;6.73;;;2.37;;
40599;SDS011;26309;50.924;4.754;2024-01-15T12:52:49;13.77;;;2.10;;
40599;SDS011;26309;50.924;4.754;2024-01-15T12:55:15;5.87;;;1.90;;
40599;SDS011;26309;50.924;4.754;2024-01-15T12:57:41;8.73;;;2.07;;
40599;SDS011;26309;50.924;4.754;2024-01-15T13:00:07;5.57;;;2.13;;
40599;SDS011;26309;50.924;4.754;2024-01-15T13:02:40;5.50;;;2.27;;
40599;SDS011;26309;50.924;4.754;2024-01-15T13:05:09;8.23;;;1.90;;
40599;SDS011;26309;50.924;4.754;2024-01-15T13:07:37;4.50;;;1.77;;
40599;SDS011;26309;50.924;4.754;2024-01-15T13:10:04;7.13;;;1.67;;
40599;SDS011;26309;50.924;4.754;2024-01-15T13:12:30;4.97;;;1.70;;
40599;SDS011;26309;50.924;4.754;2024-01-15T13:14:58;5.67;;;2.27;;
40599;SDS011;26309;50.924;4.754;2024-01-15T13:17:23;4.30;;;1.73;;
40599;SDS011;26309;50.924;4.754;2024-01-15T13:19:49;5.20;;;1.87;;
40599;SDS011;26309;50.924;4.754;2024-01-15T13:22:15;3.40;;;1.67;;
40599;SDS011;26309;50.924;4.754;2024-01-15T13:24:41;4.33;;;1.70;;
40599;SDS011;26309;50.924;4.754;2024-01-15T13:27:08;3.43;;;1.40;;
40599;SDS011;26309;50.924;4.754;2024-01-15T13:29:34;4.40;;;1.87;;
40599;SDS011;26309;50.924;4.754;2024-01-15T13:32:00;2.73;;;1.60;;
40599;SDS011;26309;50.924;4.754;2024-01-15T13:34:26;3.33;;;1.77;;
40599;SDS011;26309;50.924;4.754;2024-01-15T13:36:52;5.67;;;1.80;;
40599;SDS011;26309;50.924;4.754;2024-01-15T13:39:18;1.90;;;1.60;;
40599;SDS011;26309;50.924;4.754;2024-01-15T13:41:48;4.63;;;1.87;;
40599;SDS011;26309;50.924;4.754;2024-01-15T13:44:14;2.13;;;1.90;;
40599;SDS011;26309;50.924;4.754;2024-01-15T13:46:40;3.73;;;2.13;;
40599;SDS011;26309;50.924;4.754;2024-01-15T13:49:07;7.53;;;2.20;;
40599;SDS011;26309;50.924;4.754;2024-01-15T13:51:34;2.90;;;2.20;;
40599;SDS011;26309;50.924;4.754;2024-01-15T13:54:01;2.30;;;2.10;;
40599;SDS011;26309;50.924;4.754;2024-01-15T13:56:29;6.07;;;2.20;;
40599;SDS011;26309;50.924;4.754;2024-01-15T13:58:58;3.23;;;2.33;;
40599;SDS011;26309;50.924;4.754;2024-01-15T14:01:24;5.13;;;2.20;;
40599;SDS011;26309;50.924;4.754;2024-01-15T14:03:52;3.60;;;1.83;;
40599;SDS011;26309;50.924;4.754;2024-01-15T14:06:18;5.80;;;1.83;;
40599;SDS011;26309;50.924;4.754;2024-01-15T14:08:44;5.23;;;2.00;;
40599;SDS011;26309;50.924;4.754;2024-01-15T14:11:10;5.23;;;1.80;;
40599;SDS011;26309;50.924;4.754;2024-01-15T14:13:36;4.43;;;1.80;;
40599;SDS011;26309;50.924;4.754;2024-01-15T14:16:02;5.60;;;1.63;;
40599;SDS011;26309;50.924;4.754;2024-01-15T14:18:28;5.53;;;1.80;;
40599;SDS011;26309;50.924;4.754;2024-01-15T14:20:54;3.50;;;1.50;;
40599;SDS011;26309;50.924;4.754;2024-01-15T14:23:20;6.57;;;1.53;;
40599;SDS011;26309;50.924;4.754;2024-01-15T14:25:46;5.70;;;1.50;;
40599;SDS011;26309;50.924;4.754;2024-01-15T14:28:12;3.20;;;1.43;;
40599;SDS011;26309;50.924;4.754;2024-01-15T14:30:38;4.17;;;1.50;;
40599;SDS011;26309;50.924;4.754;2024-01-15T14:33:04;7.33;;;1.50;;
40599;SDS011;26309;50.924;4.754;2024-01-15T14:35:30;3.53;;;1.50;;
40599;SDS011;26309;50.924;4.754;2024-01-15T14:37:56;3.20;;;1.37;;
40599;SDS011;26309;50.924;4.754;2024-01-15T14:40:23;5.63;;;1.43;;